Time;durP1;ratioP1;P1;durP2;ratioP2;P2;SDS_P1;SDS_P2;PMS_P1;PMS_P2;Temp;Humidity;BMP_temperature;BMP_pressure;BME280_temperature;BME280_humidity;BME280_pressure;Samples;Min_cycle;Max_cycle;Signal;HPM_P1;HPM_P2
2023/01/21 00:01:10;;;;;;;19.50;9.27;;;;;;;-2.76;100.00;95627.50;4971487;28;20493;-73
2023/01/21 00:03:36;;;;;;;22.58;10.07;;;;;;;-2.75;100.00;95631.69;4972008;28;20046;-74
2023/01/21 00:06:02;;;;;;;21.85;10.10;;;;;;;-2.73;100.00;95629.75;4980110;28;20409;-74
2023/01/21 00:08:28;;;;;;;25.55;10.73;;;;;;;-2.69;100.00;95628.38;4977127;28;20051;-73
2023/01/21 00:10:54;;;;;;;26.08;11.68;;;;;;;-2.82;100.00;95633.41;4974517;28;20046;-73
2023/01/21 00:13:20;;;;;;;22.08;10.35;;;;;;;-2.72;100.00;95636.47;4977246;28;20043;-73
2023/01/21 00:15:45;;;;;;;23.38;11.38;;;;;;;-2.75;100.00;95631.69;4981479;28;20539;-73
2023/01/21 00:18:11;;;;;;;24.20;10.27;;;;;;;-2.71;100.00;95629.56;4982611;28;20040;-72
2023/01/21 00:20:37;;;;;;;21.05;9.77;;;;;;;-2.78;100.00;95627.69;4977104;28;22286;-73
2023/01/21 00:23:02;;;;;;;24.38;10.95;;;;;;;-2.81;100.00;95624.72;4973925;28;20126;-73
2023/01/21 00:25:28;;;;;;;20.33;10.18;;;;;;;-2.79;100.00;95627.88;4978605;28;20048;-73
2023/01/21 00:27:53;;;;;;;24.05;10.35;;;;;;;-2.76;100.00;95622.38;4984472;28;20523;-74
2023/01/21 00:30:19;;;;;;;22.70;9.65;;;;;;;-2.71;100.00;95624.41;4977115;28;20113;-72
2023/01/21 00:32:44;;;;;;;24.83;10.57;;;;;;;-2.75;100.00;95629.13;4975681;28;20038;-74
2023/01/21 00:35:10;;;;;;;22.30;10.15;;;;;;;-2.83;100.00;95629.22;4985055;28;20038;-73
2023/01/21 00:37:36;;;;;;;22.17;10.40;;;;;;;-2.80;100.00;95626.31;4980478;28;20070;-74
2023/01/21 00:40:01;;;;;;;20.65;9.40;;;;;;;-2.79;100.00;95622.72;4979209;28;20038;-73
2023/01/21 00:42:27;;;;;;;22.27;9.90;;;;;;;-2.85;100.00;95626.03;4986737;28;20034;-73
2023/01/21 00:44:53;;;;;;;23.75;9.90;;;;;;;-2.75;100.00;95626.53;4985714;28;20057;-74
2023/01/21 00:47:19;;;;;;;21.80;10.02;;;;;;;-2.80;100.00;95636.63;4977624;28;20070;-74
2023/01/21 00:49:44;;;;;;;19.30;9.77;;;;;;;-2.78;100.00;95632.84;4976852;28;20034;-74
2023/01/21 00:52:10;;;;;;;25.60;10.65;;;;;;;-2.68;100.00;95640.28;4976337;28;20097;-74
2023/01/21 00:54:36;;;;;;;26.48;10.40;;;;;;;-2.83;100.00;95647.25;4980520;28;20038;-74
2023/01/21 00:57:01;;;;;;;20.55;10.73;;;;;;;-2.84;100.00;95640.53;4978312;28;20053;-74
2023/01/21 00:59:27;;;;;;;26.30;10.30;;;;;;;-2.79;100.00;95638.19;4978045;28;20505;-74
2023/01/21 01:01:53;;;;;;;21.77;10.35;;;;;;;-2.76;100.00;95642.97;4973271;28;20039;-74
2023/01/21 01:04:19;;;;;;;24.02;10.35;;;;;;;-2.68;100.00;95645.44;4982693;28;20026;-73
2023/01/21 01:06:45;;;;;;;20.65;10.27;;;;;;;-2.76;100.00;95642.19;4974168;28;20049;-74
2023/01/21 01:09:11;;;;;;;23.80;10.30;;;;;;;-2.74;100.00;95643.59;4979735;28;20043;-73
2023/01/21 01:11:38;;;;;;;26.35;11.35;;;;;;;-2.79;100.00;95648.50;4973274;28;20727;-74
2023/01/21 01:14:04;;;;;;;30.30;11.57;;;;;;;-2.77;100.00;95646.53;4980720;28;20096;-73
2023/01/21 01:16:30;;;;;;;23.52;10.95;;;;;;;-2.75;100.00;95649.72;4976418;28;20047;-74
2023/01/21 01:18:55;;;;;;;21.65;11.07;;;;;;;-2.88;100.00;95654.75;4980624;28;20562;-73
2023/01/21 01:21:22;;;;;;;25.75;11.00;;;;;;;-2.85;100.00;95646.66;4979978;28;20046;-73
2023/01/21 01:23:50;;;;;;;27.98;11.40;;;;;;;-2.91;100.00;95652.53;4977606;28;20042;-74
2023/01/21 01:26:18;;;;;;;24.65;11.15;;;;;;;-2.92;100.00;95658.66;4978082;28;20191;-73
2023/01/21 01:28:44;;;;;;;28.35;12.38;;;;;;;-2.83;100.00;95657.56;4980196;28;20540;-73
2023/01/21 01:31:12;;;;;;;30.00;11.23;;;;;;;-2.86;100.00;95663.06;4979039;28;20043;-74
2023/01/21 01:33:38;;;;;;;24.73;11.55;;;;;;;-2.91;100.00;95653.31;4988953;28;20035;-73
2023/01/21 01:36:24;;;;;;;27.05;11.80;;;;;;;-2.96;100.00;95659.03;4971090;28;20049;-72
2023/01/21 01:38:50;;;;;;;25.23;11.70;;;;;;;-2.99;100.00;95659.38;4977319;28;20050;-74
2023/01/21 01:41:20;;;;;;;22.50;10.73;;;;;;;-2.89;100.00;95664.22;4986380;28;20519;-74
2023/01/21 01:43:58;;;;;;;26.35;11.75;;;;;;;-3.07;100.00;95661.28;4970759;28;20031;-73
2023/01/21 01:46:35;;;;;;;25.00;11.75;;;;;;;-3.05;100.00;95660.09;4969244;28;20058;-73
2023/01/21 01:49:09;;;;;;;25.63;11.65;;;;;;;-3.10;100.00;95652.13;4962737;28;20062;-73
2023/01/21 01:51:47;;;;;;;21.85;10.77;;;;;;;-3.15;100.00;95664.72;4968246;28;20035;-74
2023/01/21 01:54:18;;;;;;;30.20;11.80;;;;;;;-3.14;100.00;95658.59;4966388;28;20035;-72
2023/01/21 01:56:49;;;;;;;27.55;12.05;;;;;;;-3.15;100.00;95659.56;4974976;28;20059;-74
2023/01/21 01:59:15;;;;;;;27.00;12.25;;;;;;;-3.07;100.00;95656.13;4972302;28;20043;-73
2023/01/21 02:01:41;;;;;;;33.05;13.30;;;;;;;-3.11;100.00;95655.66;4979838;28;20042;-74
2023/01/21 02:04:11;;;;;;;24.30;11.13;;;;;;;-2.98;100.00;95655.81;4972391;28;20064;-74
2023/01/21 02:06:38;;;;;;;23.77;11.35;;;;;;;-3.06;100.00;95657.69;4975616;28;20057;-74
2023/01/21 02:09:04;;;;;;;24.60;11.20;;;;;;;-3.08;100.00;95659.66;4980178;28;20043;-74
2023/01/21 02:11:30;;;;;;;21.60;10.80;;;;;;;-3.11;100.00;95665.19;4980342;28;20527;-75
2023/01/21 02:13:58;;;;;;;25.00;12.32;;;;;;;-3.18;100.00;95665.09;4971467;28;20105;-74
2023/01/21 02:16:57;;;;;;;24.52;11.63;;;;;;;-3.15;100.00;95669.88;4970459;28;20436;-74
2023/01/21 02:19:48;;;;;;;25.58;11.07;;;;;;;-3.12;100.00;95664.34;4971771;28;20054;-74
2023/01/21 02:22:26;;;;;;;24.08;11.63;;;;;;;-3.17;100.00;95666.69;4969498;28;20034;-75
2023/01/21 02:24:55;;;;;;;25.63;11.77;;;;;;;-3.11;100.00;95665.97;4969529;28;20045;-74
2023/01/21 02:27:40;;;;;;;25.95;10.65;;;;;;;-3.23;100.00;95664.81;4989602;28;20404;-74
2023/01/21 02:30:21;;;;;;;29.10;12.20;;;;;;;-3.21;100.00;95660.28;4968744;28;20035;-74
2023/01/21 02:32:56;;;;;;;23.75;11.13;;;;;;;-3.07;100.00;95664.63;4968255;28;20039;-74
2023/01/21 02:35:53;;;;;;;29.85;11.80;;;;;;;-3.10;100.00;95667.56;4969339;28;20196;-74
2023/01/21 02:38:27;;;;;;;22.15;10.45;;;;;;;-3.19;100.00;95663.47;4968847;28;20039;-74
2023/01/21 02:41:18;;;;;;;26.50;12.38;;;;;;;-3.20;100.00;95661.91;4968560;28;20045;-74
2023/01/21 02:43:56;;;;;;;29.10;11.50;;;;;;;-3.20;100.00;95667.06;4967565;28;20428;-74
2023/01/21 02:47:07;;;;;;;26.67;12.30;;;;;;;-3.21;100.00;95660.28;4979794;28;20058;-74
2023/01/21 02:49:44;;;;;;;29.83;12.77;;;;;;;-3.21;100.00;95662.88;4982226;28;20049;-74
2023/01/21 02:52:21;;;;;;;25.92;11.65;;;;;;;-3.11;100.00;95665.97;4968943;28;20042;-74
2023/01/21 02:54:49;;;;;;;25.88;11.55;;;;;;;-3.17;100.00;95666.69;4968132;28;20057;-73
2023/01/21 02:57:50;;;;;;;25.95;11.18;;;;;;;-3.15;100.00;95669.88;4969073;28;20035;-74
2023/01/21 03:00:22;;;;;;;27.50;12.13;;;;;;;-3.15;100.00;95670.69;4965253;28;20672;-74
2023/01/21 03:03:22;;;;;;;23.75;10.98;;;;;;;-3.04;100.00;95664.28;4969902;28;20057;-74
2023/01/21 03:06:01;;;;;;;24.83;11.50;;;;;;;-3.13;100.00;95662.78;4971601;28;20452;-74
2023/01/21 03:08:37;;;;;;;29.17;13.38;;;;;;;-3.15;100.00;95659.56;4973332;28;20126;-74
2023/01/21 03:11:13;;;;;;;30.23;12.68;;;;;;;-3.12;100.00;95669.50;4977111;28;20043;-73
2023/01/21 03:17:00;;;;;;;26.55;11.95;;;;;;;-3.02;100.00;95664.88;4965064;28;20047;-74
2023/01/21 03:19:33;;;;;;;25.98;11.88;;;;;;;-3.17;100.00;95656.38;4968627;28;20043;-74
2023/01/21 03:22:04;;;;;;;25.60;11.93;;;;;;;-3.16;100.00;95663.13;4973864;28;20105;-74
2023/01/21 03:24:31;;;;;;;27.08;12.90;;;;;;;-3.15;100.00;95659.56;4969236;28;20042;-74
2023/01/21 03:26:59;;;;;;;29.92;12.88;;;;;;;-3.11;100.00;95660.81;4974803;28;20050;-74
2023/01/21 03:29:27;;;;;;;25.92;11.13;;;;;;;-3.11;100.00;95660.81;4969364;28;20038;-74
2023/01/21 03:32:01;;;;;;;26.55;11.57;;;;;;;-3.10;100.00;95656.44;4963875;28;20521;-74
2023/01/21 03:34:33;;;;;;;26.05;11.32;;;;;;;-3.17;100.00;95657.19;4968557;28;20114;-74
2023/01/21 03:37:14;;;;;;;27.67;12.75;;;;;;;-3.22;100.00;95654.38;4969955;28;20563;-74
2023/01/21 03:39:42;;;;;;;27.85;12.07;;;;;;;-3.16;100.00;95653.63;4968774;28;20051;-74
2023/01/21 03:42:09;;;;;;;28.17;13.05;;;;;;;-3.09;100.00;95653.69;4970513;28;20042;-74
2023/01/21 03:44:36;;;;;;;26.92;12.98;;;;;;;-3.06;100.00;95652.53;4968617;28;20126;-73
2023/01/21 03:47:31;;;;;;;27.17;12.68;;;;;;;-3.16;100.00;95652.81;4976199;28;20047;-74
2023/01/21 03:50:12;;;;;;;26.85;12.70;;;;;;;-3.18;100.00;95644.50;4961373;28;20662;-74
2023/01/21 03:52:40;;;;;;;25.02;11.85;;;;;;;-3.22;100.00;95648.41;4972351;28;20039;-72
2023/01/21 03:55:06;;;;;;;27.13;11.93;;;;;;;-3.15;100.00;95649.28;4973781;28;20039;-72
2023/01/21 03:57:32;;;;;;;33.92;14.35;;;;;;;-3.24;100.00;95645.22;4971981;28;20046;-72
2023/01/21 03:59:57;;;;;;;32.70;12.98;;;;;;;-3.06;100.00;95639.66;4967320;28;20047;-72
2023/01/21 04:02:23;;;;;;;29.10;12.85;;;;;;;-3.13;100.00;95648.13;4969960;28;20050;-72
2023/01/21 04:04:51;;;;;;;27.83;13.02;;;;;;;-3.22;100.00;95645.81;4973510;28;20069;-72
2023/01/21 04:07:18;;;;;;;28.98;12.73;;;;;;;-3.11;100.00;95650.50;4982195;28;20058;-72
2023/01/21 04:09:43;;;;;;;25.02;11.27;;;;;;;-3.04;100.00;95651.38;4979458;28;20057;-72
2023/01/21 04:12:09;;;;;;;25.90;11.77;;;;;;;-3.06;100.00;95648.22;4972928;28;20461;-72
2023/01/21 04:14:34;;;;;;;26.48;11.10;;;;;;;-3.06;100.00;95650.78;4977322;28;20043;-71
2023/01/21 04:17:00;;;;;;;31.65;13.20;;;;;;;-3.21;100.00;95650.00;4997652;28;20038;-71
2023/01/21 04:19:26;;;;;;;30.15;13.13;;;;;;;-3.27;100.00;95650.72;4998059;28;20102;-72
2023/01/21 04:21:51;;;;;;;25.98;12.23;;;;;;;-3.27;100.00;95655.88;4998823;28;20034;-69
2023/01/21 04:24:17;;;;;;;28.77;11.65;;;;;;;-3.11;100.00;95655.66;5000433;28;20090;-71
2023/01/21 04:26:42;;;;;;;26.48;11.55;;;;;;;-3.18;100.00;95659.94;4999353;28;20062;-71
2023/01/21 04:29:08;;;;;;;29.52;12.15;;;;;;;-3.21;100.00;95655.16;5000546;28;20074;-70
2023/01/21 04:31:33;;;;;;;27.52;11.85;;;;;;;-3.15;100.00;95657.00;5015710;28;20031;-70
2023/01/21 04:33:59;;;;;;;31.20;13.20;;;;;;;-3.17;100.00;95653.81;5000121;28;20115;-70
2023/01/21 04:36:24;;;;;;;27.85;12.93;;;;;;;-3.16;100.00;95663.94;4998671;28;20061;-71
2023/01/21 04:38:50;;;;;;;26.60;12.05;;;;;;;-3.09;100.00;95666.56;4998863;28;20104;-74
2023/01/21 04:41:16;;;;;;;27.92;11.75;;;;;;;-3.38;100.00;95657.91;4972327;28;20413;-73
2023/01/21 04:43:41;;;;;;;31.52;13.05;;;;;;;-3.32;100.00;95659.78;4972695;28;20050;-72
2023/01/21 04:46:07;;;;;;;25.45;12.07;;;;;;;-3.27;100.00;95661.03;4970543;28;20113;-74
2023/01/21 04:48:32;;;;;;;26.02;11.60;;;;;;;-3.26;100.00;95662.59;4972383;28;20043;-74
2023/01/21 04:50:58;;;;;;;25.48;12.75;;;;;;;-3.18;100.00;95665.09;4975727;28;20038;-73
2023/01/21 04:53:23;;;;;;;28.40;12.27;;;;;;;-3.24;100.00;95665.81;4984723;28;20038;-74
2023/01/21 04:55:53;;;;;;;28.98;12.05;;;;;;;-3.33;100.00;95668.47;4974540;28;20401;-74
2023/01/21 04:58:19;;;;;;;27.52;12.25;;;;;;;-3.42;100.00;95669.53;4968839;28;20098;-73
2023/01/21 05:00:45;;;;;;;27.77;12.38;;;;;;;-3.28;100.00;95669.72;4983580;28;20063;-74
2023/01/21 05:03:10;;;;;;;32.22;12.13;;;;;;;-3.33;100.00;95673.63;4971668;28;20038;-73
2023/01/21 05:05:36;;;;;;;26.80;12.10;;;;;;;-3.34;100.00;95666.84;4968508;28;20051;-74
2023/01/21 05:08:02;;;;;;;30.02;13.07;;;;;;;-3.36;100.00;95676.53;4986593;28;20043;-74
2023/01/21 05:10:28;;;;;;;31.88;12.48;;;;;;;-3.37;100.00;95667.22;4973711;28;20050;-72
2023/01/21 05:12:53;;;;;;;27.58;12.35;;;;;;;-3.40;100.00;95671.94;4987816;28;20047;-74
2023/01/21 05:15:22;;;;;;;28.00;12.82;;;;;;;-3.41;100.00;95671.13;4971068;28;20062;-74
2023/01/21 05:17:47;;;;;;;31.00;12.95;;;;;;;-3.41;100.00;95671.13;4971447;28;20552;-74
2023/01/21 05:20:13;;;;;;;30.65;11.98;;;;;;;-3.39;100.00;95674.34;4971013;28;20196;-73
2023/01/21 05:22:38;;;;;;;30.15;11.95;;;;;;;-3.28;100.00;95669.72;4971216;28;20527;-75
2023/01/21 05:25:05;;;;;;;26.95;11.65;;;;;;;-3.41;100.00;95665.97;4970355;28;20536;-73
2023/01/21 05:27:30;;;;;;;27.52;11.88;;;;;;;-3.41;100.00;95665.97;4969996;28;20038;-73
2023/01/21 05:29:56;;;;;;;25.77;11.48;;;;;;;-3.36;100.00;95657.72;4969677;28;20472;-74
2023/01/21 05:32:22;;;;;;;31.40;12.52;;;;;;;-3.44;100.00;95656.03;4972261;28;20137;-74
2023/01/21 05:34:48;;;;;;;27.08;12.25;;;;;;;-3.48;100.00;95662.50;4984074;28;20046;-72
2023/01/21 05:37:13;;;;;;;29.33;13.63;;;;;;;-3.47;100.00;95656.41;4970671;28;20446;-74
2023/01/21 05:39:39;;;;;;;26.15;11.68;;;;;;;-3.57;100.00;95655.88;4985432;28;20050;-74
2023/01/21 05:42:04;;;;;;;37.05;13.27;;;;;;;-3.67;100.00;95667.19;4970783;28;20538;-74
2023/01/21 05:44:30;;;;;;;28.20;13.20;;;;;;;-3.81;100.00;95665.41;4973644;28;20050;-74
2023/01/21 05:46:55;;;;;;;33.20;13.13;;;;;;;-3.84;100.00;95670.91;4967256;28;20042;-73
2023/01/21 05:49:21;;;;;;;27.52;11.70;;;;;;;-3.96;100.00;95672.31;4973409;28;20042;-73
2023/01/21 05:51:46;;;;;;;29.95;12.90;;;;;;;-3.88;100.00;95665.34;4970487;28;20927;-74
2023/01/21 05:54:12;;;;;;;28.15;12.65;;;;;;;-3.87;100.00;95681.53;4970127;28;20129;-73
2023/01/21 05:56:38;;;;;;;29.60;13.52;;;;;;;-3.85;100.00;95679.59;4970590;28;20053;-73
2023/01/21 05:59:04;;;;;;;35.20;13.65;;;;;;;-3.89;100.00;95678.38;4974655;28;20463;-73
2023/01/21 06:01:29;;;;;;;39.60;13.90;;;;;;;-3.96;100.00;95682.59;4968382;28;20047;-73
2023/01/21 06:03:55;;;;;;;35.22;13.43;;;;;;;-3.94;100.00;95680.66;4969380;28;20043;-73
2023/01/21 06:06:20;;;;;;;30.13;12.45;;;;;;;-3.94;100.00;95685.78;4971531;28;20049;-73
2023/01/21 06:08:46;;;;;;;33.63;13.73;;;;;;;-3.94;100.00;95690.94;4978152;28;20042;-73
2023/01/21 06:11:11;;;;;;;31.95;13.27;;;;;;;-3.93;100.00;95683.03;4969004;28;20050;-72
2023/01/21 06:13:37;;;;;;;35.30;13.27;;;;;;;-3.78;100.00;95680.47;4983146;28;20090;-73
2023/01/21 06:16:02;;;;;;;34.45;13.70;;;;;;;-3.77;100.00;95682.09;4974026;28;20042;-73
2023/01/21 06:18:28;;;;;;;29.50;12.88;;;;;;;-3.82;100.00;95684.41;4972129;28;20034;-73
2023/01/21 06:20:53;;;;;;;23.50;10.90;;;;;;;-3.87;100.00;95682.34;4979590;28;20038;-73
2023/01/21 06:23:19;;;;;;;30.27;12.77;;;;;;;-3.88;100.00;95692.78;4968587;28;20528;-72
2023/01/21 06:25:45;;;;;;;32.05;12.80;;;;;;;-3.82;100.00;95686.97;4973524;28;20043;-72
2023/01/21 06:28:11;;;;;;;33.30;13.15;;;;;;;-3.68;100.00;95691.34;4972237;28;20039;-73
2023/01/21 06:30:37;;;;;;;32.63;12.43;;;;;;;-3.80;100.00;95692.72;4974165;28;20039;-73
2023/01/21 06:33:02;;;;;;;31.10;12.07;;;;;;;-3.76;100.00;95699.13;4971115;28;20035;-73
2023/01/21 06:35:28;;;;;;;29.05;12.10;;;;;;;-3.98;100.00;95705.09;4969220;28;20042;-72
2023/01/21 06:37:54;;;;;;;27.10;11.90;;;;;;;-3.92;100.00;95701.81;4968933;28;20039;-72
2023/01/21 06:40:19;;;;;;;28.20;11.57;;;;;;;-3.80;100.00;95697.88;4970792;28;20444;-73
2023/01/21 06:42:47;;;;;;;27.88;10.65;;;;;;;-3.89;100.00;95704.88;4970193;28;20038;-72
2023/01/21 06:45:13;;;;;;;31.33;12.25;;;;;;;-3.91;100.00;95706.00;4982330;28;20050;-73
2023/01/21 06:47:41;;;;;;;33.20;12.93;;;;;;;-4.03;100.00;95703.84;4971550;28;20081;-73
2023/01/21 06:50:09;;;;;;;31.45;12.02;;;;;;;-4.01;100.00;95707.06;4969102;28;20051;-73
2023/01/21 06:52:35;;;;;;;26.67;11.32;;;;;;;-3.91;100.00;95706.78;4975173;28;20070;-74
2023/01/21 06:55:01;;;;;;;32.33;12.75;;;;;;;-3.92;100.00;95704.41;4970353;28;20136;-73
2023/01/21 06:57:26;;;;;;;28.25;11.43;;;;;;;-3.93;100.00;95713.09;4964841;28;20034;-74
2023/01/21 06:59:52;;;;;;;27.92;12.35;;;;;;;-3.95;100.00;95709.88;4968913;28;20488;-74
2023/01/21 07:02:17;;;;;;;27.65;11.32;;;;;;;-4.03;100.00;95703.84;4969366;28;20037;-75
2023/01/21 07:04:44;;;;;;;26.55;11.13;;;;;;;-3.98;100.00;95705.88;4969637;28;20051;-76
2023/01/21 07:07:09;;;;;;;32.30;10.82;;;;;;;-3.90;100.00;95707.63;4974093;28;20548;-72
2023/01/21 07:09:35;;;;;;;33.42;12.18;;;;;;;-3.89;100.00;95716.94;4964347;28;20046;-72
2023/01/21 07:12:00;;;;;;;30.70;12.88;;;;;;;-3.92;100.00;95710.34;4969975;28;20682;-76
2023/01/21 07:14:26;;;;;;;26.77;11.10;;;;;;;-3.82;100.00;95725.56;4969728;28;20097;-76
2023/01/21 07:16:52;;;;;;;28.80;11.07;;;;;;;-3.83;100.00;95721.38;4967308;28;20109;-75
2023/01/21 07:19:18;;;;;;;23.15;10.50;;;;;;;-3.76;100.00;95714.56;4983082;28;20414;-76
2023/01/21 07:21:43;;;;;;;26.67;10.73;;;;;;;-3.80;100.00;95717.66;4970002;28;20138;-76
2023/01/21 07:24:09;;;;;;;25.20;10.30;;;;;;;-3.73;100.00;95724.50;4989284;28;20042;-75
2023/01/21 07:26:36;;;;;;;21.83;10.18;;;;;;;-3.75;100.00;95726.47;4969602;28;20517;-73
2023/01/21 07:29:05;;;;;;;25.20;10.68;;;;;;;-3.75;100.00;95725.63;4970066;28;20045;-76
2023/01/21 07:31:32;;;;;;;31.20;9.70;;;;;;;-3.70;100.00;95729.28;4980118;28;20623;-75
2023/01/21 07:33:57;;;;;;;24.92;9.85;;;;;;;-3.66;100.00;95727.97;4970732;28;20042;-78
2023/01/21 07:36:23;;;;;;;24.00;10.40;;;;;;;-3.84;100.00;95730.06;4970654;28;20067;-78
2023/01/21 07:38:48;;;;;;;22.00;10.18;;;;;;;-3.85;100.00;95736.97;4972574;28;20047;-76
2023/01/21 07:41:14;;;;;;;27.48;10.52;;;;;;;-3.85;100.00;95736.16;4975251;28;20047;-77
2023/01/21 07:43:39;;;;;;;25.70;9.65;;;;;;;-3.84;100.00;95737.75;4969748;28;20046;-78
2023/01/21 07:46:05;;;;;;;21.73;9.95;;;;;;;-3.77;100.00;95743.81;4972207;28;20059;-78
2023/01/21 07:48:30;;;;;;;29.17;11.07;;;;;;;-3.94;100.00;95742.34;4972741;28;20039;-77
2023/01/21 07:50:59;;;;;;;24.00;10.48;;;;;;;-3.88;100.00;95736.50;4981263;28;20035;-77
2023/01/21 07:53:25;;;;;;;23.58;10.55;;;;;;;-3.85;100.00;95747.25;4984518;28;20101;-77
2023/01/21 07:55:51;;;;;;;29.27;11.93;;;;;;;-3.87;100.00;95745.81;4978300;28;20839;-78
2023/01/21 07:58:16;;;;;;;25.75;10.68;;;;;;;-3.93;100.00;95743.97;4970784;28;20042;-77
2023/01/21 08:00:42;;;;;;;30.75;12.55;;;;;;;-3.87;100.00;95748.41;4999201;28;20097;-76
2023/01/21 08:03:07;;;;;;;31.63;12.60;;;;;;;-3.75;100.00;95746.22;4977685;28;20034;-77
2023/01/21 08:05:33;;;;;;;29.35;11.02;;;;;;;-3.81;100.00;95752.84;4982843;28;20059;-74
2023/01/21 08:07:59;;;;;;;29.90;10.73;;;;;;;-3.85;100.00;95746.44;4973348;28;20113;-73
2023/01/21 08:10:25;;;;;;;28.08;10.82;;;;;;;-3.77;100.00;95751.53;4981427;28;20058;-74
2023/01/21 08:12:50;;;;;;;26.15;11.27;;;;;;;-3.64;100.00;95748.38;4972924;28;20463;-75
2023/01/21 08:15:16;;;;;;;29.38;10.65;;;;;;;-3.72;100.00;95744.09;4980355;28;20114;-75
2023/01/21 08:17:42;;;;;;;26.98;10.27;;;;;;;-3.76;100.00;95750.56;4976462;28;20042;-77
2023/01/21 08:20:10;;;;;;;24.73;9.73;;;;;;;-3.76;100.00;95750.56;4974898;28;20050;-76
2023/01/21 08:22:36;;;;;;;27.88;10.40;;;;;;;-3.75;100.00;95747.03;4980440;28;20039;-75
2023/01/21 08:25:03;;;;;;;25.20;11.13;;;;;;;-3.75;100.00;95747.03;4973280;28;20058;-74
2023/01/21 08:27:29;;;;;;;23.98;10.27;;;;;;;-3.64;100.00;95747.59;4974415;28;20055;-75
2023/01/21 08:29:54;;;;;;;27.33;10.65;;;;;;;-3.54;100.00;95754.06;4970570;28;20409;-74
2023/01/21 08:32:20;;;;;;;27.42;11.20;;;;;;;-3.61;100.00;95752.38;4973308;28;20047;-74
2023/01/21 08:34:46;;;;;;;30.48;11.18;;;;;;;-3.47;100.00;95758.53;4974025;28;20046;-78
2023/01/21 08:37:12;;;;;;;30.17;11.82;;;;;;;-3.52;100.00;95751.31;4990991;28;20042;-73
2023/01/21 08:39:37;;;;;;;29.70;11.75;;;;;;;-3.66;100.00;95748.53;4974436;28;20050;-74
2023/01/21 08:42:03;;;;;;;33.92;11.35;;;;;;;-3.51;100.00;95755.50;4992177;28;20456;-73
2023/01/21 08:44:29;;;;;;;27.35;11.70;;;;;;;-3.57;100.00;95758.78;4979952;28;20504;-75
2023/01/21 08:46:55;;;;;;;28.15;12.05;;;;;;;-3.48;100.00;95757.72;4977276;28;20042;-74
2023/01/21 08:49:21;;;;;;;25.75;11.27;;;;;;;-3.74;100.00;95764.03;4973313;28;20039;-74
2023/01/21 08:51:47;;;;;;;27.42;10.55;;;;;;;-3.72;100.00;95767.25;4999789;28;20035;-75
2023/01/21 08:54:14;;;;;;;24.38;10.40;;;;;;;-3.46;100.00;95760.94;4995543;28;20524;-73
2023/01/21 08:56:39;;;;;;;28.67;11.98;;;;;;;-3.40;100.00;95765.38;4996433;28;20108;-74
2023/01/21 08:59:05;;;;;;;30.40;11.30;;;;;;;-3.50;100.00;95769.97;4987298;28;20636;-75
2023/01/21 09:01:30;;;;;;;26.98;12.25;;;;;;;-3.46;100.00;95776.38;4982969;28;20405;-75
2023/01/21 09:03:58;;;;;;;34.05;12.20;;;;;;;-3.48;100.00;95773.16;4994740;28;20069;-75
2023/01/21 09:06:26;;;;;;;27.73;11.70;;;;;;;-3.28;100.00;95772.66;4980542;28;20043;-76
2023/01/21 09:08:52;;;;;;;32.25;13.55;;;;;;;-3.52;100.00;95777.03;4975288;28;20042;-76
2023/01/21 09:11:17;;;;;;;32.00;13.05;;;;;;;-3.55;100.00;95767.09;4982592;28;20042;-75
2023/01/21 09:13:43;;;;;;;30.88;12.45;;;;;;;-3.22;100.00;95771.94;4978690;28;20127;-80
2023/01/21 09:16:20;;;;;;;25.13;11.23;;;;;;;-3.18;100.00;95774.00;4976568;28;20373;-76
2023/01/21 09:18:49;;;;;;;33.95;12.35;;;;;;;-3.41;100.00;95768.91;4975189;28;20042;-73
2023/01/21 09:21:15;;;;;;;36.15;12.27;;;;;;;-3.38;100.00;95763.41;4977533;28;20513;-74
2023/01/21 09:23:41;;;;;;;33.05;13.20;;;;;;;-3.27;100.00;95769.91;4975630;28;20042;-73
2023/01/21 09:26:12;;;;;;;35.33;13.65;;;;;;;-3.13;100.00;95776.84;4975520;28;20512;-75
2023/01/21 09:28:41;;;;;;;26.75;11.52;;;;;;;-3.20;100.00;95775.94;4976504;28;20035;-77
2023/01/21 09:31:10;;;;;;;27.48;11.90;;;;;;;-3.17;100.00;95774.81;4974744;28;20046;-73
2023/01/21 09:33:38;;;;;;;25.85;11.77;;;;;;;-3.01;100.00;95777.19;4974567;28;20035;-77
2023/01/21 09:36:06;;;;;;;26.55;11.38;;;;;;;-3.10;100.00;95773.13;4976001;28;20054;-77
2023/01/21 09:38:32;;;;;;;35.10;13.10;;;;;;;-3.27;100.00;95775.06;4988380;28;20062;-74
2023/01/21 09:41:12;;;;;;;29.67;12.70;;;;;;;-3.12;100.00;95777.63;4975065;28;20424;-73
2023/01/21 09:43:43;;;;;;;32.25;12.23;;;;;;;-2.99;100.00;95775.25;4985616;28;20081;-74
2023/01/21 09:46:16;;;;;;;32.47;12.27;;;;;;;-2.87;100.00;95785.13;4975701;28;20319;-74
2023/01/21 09:48:46;;;;;;;34.63;13.10;;;;;;;-2.97;100.00;95781.03;4977434;28;20449;-73
2023/01/21 09:51:37;;;;;;;25.65;10.98;;;;;;;-3.38;100.00;95771.13;4981607;28;20081;-74
2023/01/21 09:54:14;;;;;;;29.48;12.48;;;;;;;-3.23;100.00;95775.50;4976100;28;20039;-74
2023/01/21 09:57:09;;;;;;;32.63;11.38;;;;;;;-3.13;100.00;95770.91;4980746;28;20051;-73
2023/01/21 09:59:56;;;;;;;30.02;12.43;;;;;;;-3.05;100.00;95770.81;4952922;28;20054;-74
2023/01/21 10:02:41;;;;;;;33.35;12.27;;;;;;;-2.83;100.00;95770.88;4972777;28;20492;-73
2023/01/21 10:05:35;;;;;;;25.92;11.52;;;;;;;-3.02;100.00;95772.22;4971395;28;20042;-73
2023/01/21 10:08:00;;;;;;;26.02;10.90;;;;;;;-3.00;100.00;95776.22;4979493;28;20050;-73
2023/01/21 10:10:38;;;;;;;30.80;12.60;;;;;;;-2.90;100.00;95777.72;4983940;28;20039;-74
2023/01/21 10:13:41;;;;;;;25.05;11.13;;;;;;;-2.88;100.00;95778.38;4980845;28;20046;-74
2023/01/21 10:16:27;;;;;;;29.33;12.35;;;;;;;-3.07;100.00;95765.03;4981018;28;20043;-74
2023/01/21 10:18:55;;;;;;;30.48;12.52;;;;;;;-3.00;100.00;95765.94;4973933;28;20046;-77
2023/01/21 10:21:48;;;;;;;28.95;11.77;;;;;;;-2.99;100.00;95761.56;4981885;28;20497;-75
2023/01/21 10:24:19;;;;;;;36.53;12.82;;;;;;;-2.88;100.00;95762.91;4983435;28;20042;-75
2023/01/21 10:26:47;;;;;;;28.25;11.40;;;;;;;-2.98;100.00;95766.53;4977819;28;20042;-73
2023/01/21 10:29:17;;;;;;;33.92;12.40;;;;;;;-2.96;100.00;95764.59;4974539;28;20050;-73
2023/01/21 10:31:50;;;;;;;28.50;12.07;;;;;;;-3.22;100.00;95766.81;4974836;28;20413;-75
2023/01/21 10:34:18;;;;;;;28.58;11.88;;;;;;;-3.20;100.00;95762.28;4983024;28;20117;-74
2023/01/21 10:37:02;;;;;;;25.65;11.02;;;;;;;-3.14;100.00;95764.16;4975181;28;20050;-76
2023/01/21 10:39:37;;;;;;;28.35;11.73;;;;;;;-3.05;100.00;95770.00;4984461;28;20649;-73
2023/01/21 10:42:18;;;;;;;29.00;12.82;;;;;;;-3.04;100.00;95764.69;4976452;28;20046;-75
2023/01/21 10:44:58;;;;;;;27.92;11.40;;;;;;;-2.97;100.00;95768.16;4970954;28;20057;-76
2023/01/21 10:47:42;;;;;;;30.42;11.68;;;;;;;-3.02;100.00;95762.72;4975771;28;20062;-74
2023/01/21 10:50:14;;;;;;;28.83;11.07;;;;;;;-2.90;100.00;95755.38;4996257;28;20120;-75
2023/01/21 10:52:47;;;;;;;27.48;11.48;;;;;;;-2.84;100.00;95759.00;4974872;28;20054;-74
2023/01/21 10:55:42;;;;;;;25.42;10.70;;;;;;;-2.89;100.00;95751.00;4987265;28;20117;-74
2023/01/21 10:58:34;;;;;;;23.05;10.18;;;;;;;-2.94;100.00;95758.47;4971270;28;20039;-73
2023/01/21 11:01:08;;;;;;;29.17;11.95;;;;;;;-2.84;100.00;95748.72;4968834;28;20386;-75
2023/01/21 11:03:56;;;;;;;28.52;11.23;;;;;;;-2.86;100.00;95760.94;4990979;28;20097;-74
2023/01/21 11:06:23;;;;;;;25.80;11.02;;;;;;;-2.69;100.00;95752.03;4991046;28;20039;-75
2023/01/21 11:08:59;;;;;;;21.17;10.07;;;;;;;-2.78;100.00;95753.13;4972741;28;20501;-75
2023/01/21 11:11:30;;;;;;;22.40;10.15;;;;;;;-2.81;100.00;95753.50;4986301;28;20050;-75
2023/01/21 11:13:57;;;;;;;22.20;9.02;;;;;;;-2.87;100.00;95749.06;4971341;28;20042;-74
2023/01/21 11:16:37;;;;;;;23.15;10.68;;;;;;;-2.64;100.00;95747.16;4982804;28;20093;-72
2023/01/21 11:19:05;;;;;;;26.08;10.50;;;;;;;-2.57;100.00;95749.00;4972751;28;20034;-74
2023/01/21 11:21:32;;;;;;;24.02;9.48;;;;;;;-2.59;100.00;95741.47;5011908;28;20038;-78
2023/01/21 11:24:03;;;;;;;27.52;10.07;;;;;;;-2.53;100.00;95742.50;4973818;28;20089;-74